createdAt,value
2022-12-15T00:05:00.317Z,23.55
2022-12-15T00:11:21.277Z,21.20
2022-12-15T00:17:41.546Z,21.88
2022-12-15T00:24:01.782Z,21.52
2022-12-15T00:30:24.325Z,20.75
2022-12-15T00:36:44.740Z,21.38
2022-12-15T00:42:51.682Z,22.47
2022-12-15T00:48:53.992Z,20.67
2022-12-15T00:55:14.772Z,22.00
2022-12-15T01:01:35.171Z,22.33
2022-12-15T01:07:55.568Z,21.75
2022-12-15T01:14:15.869Z,20.77
2022-12-15T01:20:20.737Z,22.27
2022-12-15T01:26:22.925Z,28.87
2022-12-15T01:32:24.978Z,24.95
2022-12-15T01:38:27.713Z,24.70
2022-12-15T01:44:29.550Z,25.70
2022-12-15T01:50:35.975Z,25.15
2022-12-15T01:56:43.492Z,24.42
2022-12-15T02:02:45.680Z,24.10
2022-12-15T02:08:50.238Z,22.67
2022-12-15T02:15:11.013Z,22.55
2022-12-15T02:21:21.959Z,21.13
2022-12-15T02:28:01.410Z,22.08
2022-12-15T02:34:14.407Z,22.00
2022-12-15T02:40:16.273Z,21.23
2022-12-15T02:46:31.173Z,20.33
2022-12-15T02:52:56.127Z,20.77
2022-12-15T02:59:25.551Z,22.05
2022-12-15T03:05:28.178Z,21.90
2022-12-15T03:11:30.983Z,20.43
2022-12-15T03:17:32.809Z,20.53
2022-12-15T03:23:34.660Z,20.97
2022-12-15T03:29:36.581Z,20.35
2022-12-15T03:35:38.501Z,22.30
2022-12-15T03:41:41.639Z,21.63
2022-12-15T03:47:44.297Z,21.00
2022-12-15T03:53:48.032Z,21.05
2022-12-15T03:59:50.086Z,22.33
2022-12-15T04:05:52.003Z,22.17
2022-12-15T04:11:53.808Z,21.27
2022-12-15T04:17:56.367Z,20.97
2022-12-15T04:24:16.749Z,22.03
2022-12-15T04:30:37.641Z,21.57
2022-12-15T04:37:00.187Z,20.80
2022-12-15T04:43:20.853Z,20.73
2022-12-15T04:49:41.448Z,20.57
2022-12-15T04:56:01.848Z,20.75
2022-12-15T05:02:22.386Z,20.80
2022-12-15T05:08:42.964Z,22.10
2022-12-15T05:15:03.442Z,22.17
2022-12-15T05:21:24.348Z,19.90
2022-12-15T05:34:11.257Z,25.30
2022-12-15T05:40:13.196Z,25.55
2022-12-15T05:46:15.469Z,24.45
2022-12-15T05:52:17.589Z,25.60
2022-12-15T05:58:19.408Z,28.53
2022-12-15T06:04:21.293Z,29.37
2022-12-15T06:10:23.124Z,26.70
2022-12-15T06:16:27.976Z,26.10
2022-12-15T06:22:29.982Z,21.47
2022-12-15T06:28:31.830Z,21.77
2022-12-15T06:34:33.633Z,19.67
2022-12-15T06:40:38.172Z,21.10
2022-12-15T06:46:40.263Z,20.27
2022-12-15T06:52:42.131Z,20.67
2022-12-15T06:58:43.954Z,22.00
2022-12-15T07:04:45.959Z,19.10
2022-12-15T07:10:47.867Z,18.92
2022-12-15T07:16:49.674Z,18.40
2022-12-15T07:22:52.283Z,19.20
2022-12-15T07:28:54.686Z,23.92
2022-12-15T07:34:56.563Z,22.08
2022-12-15T07:41:03.452Z,25.15
2022-12-15T07:47:05.550Z,23.45
2022-12-15T07:53:07.533Z,22.60
2022-12-15T07:59:09.981Z,19.50
2022-12-15T08:05:11.852Z,20.15
2022-12-15T08:11:15.295Z,18.30
2022-12-15T08:17:17.167Z,18.90
2022-12-15T08:23:19.055Z,18.95
2022-12-15T08:35:56.413Z,18.40
2022-12-15T08:41:58.996Z,19.17
2022-12-15T08:48:01.129Z,18.70
2022-12-15T08:54:03.113Z,18.10
2022-12-15T09:00:05.811Z,19.20
2022-12-15T09:06:13.205Z,20.05
2022-12-15T09:12:15.155Z,20.17
2022-12-15T09:18:17.010Z,19.25
2022-12-15T09:24:28.758Z,19.40
2022-12-15T09:30:36.290Z,21.65
2022-12-15T09:36:38.215Z,24.58
2022-12-15T09:42:40.121Z,24.92
2022-12-15T09:48:45.196Z,24.75
2022-12-15T09:54:47.318Z,24.83
2022-12-15T10:00:56.240Z,24.42
2022-12-15T10:07:22.303Z,22.52
2022-12-15T10:13:45.710Z,15.37
2022-12-15T10:19:58.301Z,22.08
2022-12-15T10:26:25.696Z,23.98
2022-12-15T10:32:37.953Z,26.70
2022-12-15T10:38:50.545Z,23.15
2022-12-15T10:44:58.485Z,22.40
2022-12-15T10:51:20.498Z,19.63
2022-12-15T10:57:31.747Z,19.20
2022-12-15T11:03:38.720Z,20.40
2022-12-15T11:09:41.485Z,19.55
2022-12-15T11:15:54.968Z,18.70
2022-12-15T11:22:02.902Z,18.90
2022-12-15T11:28:20.446Z,18.13
2022-12-15T11:34:36.358Z,18.23
2022-12-15T11:40:43.188Z,19.77
2022-12-15T11:46:53.317Z,20.38
2022-12-15T11:53:19.682Z,20.27
2022-12-15T11:59:46.466Z,18.65
2022-12-15T12:06:19.483Z,20.37
2022-12-15T12:12:32.466Z,20.77
2022-12-15T12:18:43.046Z,18.58
2022-12-15T12:24:51.035Z,19.23
2022-12-15T12:30:56.650Z,17.48
2022-12-15T12:37:13.850Z,16.38
2022-12-15T12:43:26.060Z,16.73
2022-12-15T12:49:38.338Z,16.83
2022-12-15T12:55:42.411Z,16.73
2022-12-15T13:01:44.309Z,16.10
2022-12-15T13:08:13.548Z,14.98
2022-12-15T13:14:31.948Z,15.68
2022-12-15T13:20:38.305Z,14.90
2022-12-15T13:26:44.946Z,14.40
2022-12-15T13:33:16.497Z,15.00
2022-12-15T13:39:18.238Z,13.73
2022-12-15T13:45:50.657Z,14.05
2022-12-15T13:52:00.720Z,15.25
2022-12-15T13:58:16.036Z,14.23
2022-12-15T14:04:18.826Z,14.48
2022-12-15T14:10:29.803Z,14.95
2022-12-15T14:16:34.550Z,15.77
2022-12-15T14:22:36.389Z,16.25
2022-12-15T14:28:41.205Z,15.48
2022-12-15T14:34:44.959Z,15.48
2022-12-15T14:40:56.616Z,17.23
2022-12-15T14:47:00.169Z,15.73
2022-12-15T14:53:16.838Z,18.08
2022-12-15T14:59:20.513Z,17.90
2022-12-15T15:05:27.736Z,17.00
2022-12-15T15:11:35.316Z,17.27
2022-12-15T15:17:38.476Z,18.50
2022-12-15T15:23:40.698Z,17.60
2022-12-15T15:29:42.556Z,18.00
2022-12-15T15:35:47.731Z,16.70
2022-12-15T15:41:49.704Z,15.27
2022-12-15T15:47:56.167Z,15.65
2022-12-15T15:54:01.401Z,14.93
2022-12-15T16:00:13.697Z,13.63
2022-12-15T16:06:21.185Z,13.95
2022-12-15T16:12:30.243Z,13.88
2022-12-15T16:18:32.827Z,14.77
2022-12-15T16:24:34.909Z,13.77
2022-12-15T16:30:36.750Z,15.43
2022-12-15T16:36:39.992Z,16.27
2022-12-15T16:42:41.919Z,16.80
2022-12-15T16:48:48.096Z,14.30
2022-12-15T16:54:53.449Z,12.73
2022-12-15T17:00:59.168Z,12.05
2022-12-15T17:07:02.894Z,13.23
2022-12-15T17:13:37.811Z,13.00
2022-12-15T17:20:19.843Z,13.95
2022-12-15T17:26:29.892Z,13.35
2022-12-15T17:32:32.040Z,19.27
2022-12-15T17:38:34.031Z,21.88
2022-12-15T17:44:37.920Z,19.58
2022-12-15T17:50:40.411Z,18.08
2022-12-15T17:56:44.572Z,16.08
2022-12-15T18:02:46.595Z,17.08
2022-12-15T18:08:48.602Z,16.35
2022-12-15T18:14:50.907Z,18.40
2022-12-15T18:21:00.264Z,17.98
2022-12-15T18:27:02.159Z,26.63
2022-12-15T18:33:04.099Z,25.52
2022-12-15T18:39:23.169Z,26.58
2022-12-15T18:45:28.259Z,29.75
2022-12-15T18:51:31.019Z,33.40
2022-12-15T18:57:37.821Z,29.48
2022-12-15T19:03:41.038Z,29.95
2022-12-15T19:09:43.014Z,19.80
2022-12-15T19:15:45.585Z,18.55
2022-12-15T19:21:48.390Z,19.42
2022-12-15T19:27:50.232Z,29.90
2022-12-15T19:33:52.212Z,27.33
2022-12-15T19:39:56.430Z,28.27
2022-12-15T19:45:58.299Z,26.35
2022-12-15T19:52:00.165Z,24.40
2022-12-15T19:58:27.814Z,20.15
2022-12-15T20:04:32.115Z,18.83
2022-12-15T20:10:33.933Z,17.15
2022-12-15T20:16:35.756Z,18.60
2022-12-15T20:22:37.635Z,17.02
2022-12-15T20:28:39.466Z,23.42
2022-12-15T20:34:41.658Z,26.92
2022-12-15T20:40:43.544Z,29.25
2022-12-15T20:46:45.682Z,33.53
2022-12-15T20:52:47.532Z,24.23
2022-12-15T20:58:53.848Z,23.42
2022-12-15T21:04:55.825Z,23.63
2022-12-15T21:11:02.153Z,23.42
2022-12-15T21:17:04.082Z,31.90
2022-12-15T21:23:06.402Z,34.30
2022-12-15T21:29:14.017Z,34.70
2022-12-15T21:35:17.388Z,35.92
2022-12-15T21:41:22.094Z,30.98
2022-12-15T21:47:49.977Z,24.45
2022-12-15T21:53:53.925Z,24.73
2022-12-15T21:59:55.763Z,28.70
2022-12-15T22:05:57.558Z,28.75
2022-12-15T22:11:59.487Z,29.42
2022-12-15T22:18:01.546Z,30.45
2022-12-15T22:24:03.494Z,29.58
2022-12-15T22:30:13.590Z,27.80
2022-12-15T22:36:15.534Z,32.22
2022-12-15T22:42:17.538Z,31.45
2022-12-15T22:48:20.676Z,31.67
2022-12-15T22:54:28.880Z,25.40
2022-12-15T23:00:30.675Z,26.50
2022-12-15T23:06:32.600Z,25.73
2022-12-15T23:12:34.371Z,25.75
2022-12-15T23:18:36.469Z,26.85
2022-12-15T23:24:39.010Z,26.92
2022-12-15T23:30:40.889Z,24.67
2022-12-15T23:36:42.707Z,25.70
2022-12-15T23:42:44.503Z,25.08
2022-12-15T23:48:46.965Z,24.48
2022-12-15T23:54:48.758Z,23.90
